sensor_id;sensor_type;location;lat;lon;timestamp;P1;durP1;ratioP1;P2;durP2;ratioP2
20734;SDS011;10528;52.124;5.196;2023-02-19T00:02:06;14.43;;;4.40;;
20734;SDS011;10528;52.124;5.196;2023-02-19T00:04:33;17.38;;;4.15;;
20734;SDS011;10528;52.124;5.196;2023-02-19T00:06:59;13.40;;;3.35;;
20734;SDS011;10528;52.124;5.196;2023-02-19T00:09:26;15.23;;;3.95;;
20734;SDS011;10528;52.124;5.196;2023-02-19T00:11:53;13.70;;;4.20;;
20734;SDS011;10528;52.124;5.196;2023-02-19T00:14:20;14.77;;;4.28;;
20734;SDS011;10528;52.124;5.196;2023-02-19T00:16:47;14.60;;;3.85;;
20734;SDS011;10528;52.124;5.196;2023-02-19T00:19:15;11.50;;;4.32;;
20734;SDS011;10528;52.124;5.196;2023-02-19T00:21:45;12.40;;;3.97;;
20734;SDS011;10528;52.124;5.196;2023-02-19T00:24:13;14.35;;;4.00;;
20734;SDS011;10528;52.124;5.196;2023-02-19T00:26:41;12.60;;;4.38;;
20734;SDS011;10528;52.124;5.196;2023-02-19T00:29:19;13.07;;;4.07;;
20734;SDS011;10528;52.124;5.196;2023-02-19T00:31:47;12.57;;;4.80;;
20734;SDS011;10528;52.124;5.196;2023-02-19T00:34:14;13.45;;;4.90;;
20734;SDS011;10528;52.124;5.196;2023-02-19T00:36:41;14.93;;;4.93;;
20734;SDS011;10528;52.124;5.196;2023-02-19T00:39:10;12.48;;;4.35;;
20734;SDS011;10528;52.124;5.196;2023-02-19T00:41:41;10.93;;;4.53;;
20734;SDS011;10528;52.124;5.196;2023-02-19T00:44:09;10.70;;;4.97;;
20734;SDS011;10528;52.124;5.196;2023-02-19T00:46:38;12.90;;;5.30;;
20734;SDS011;10528;52.124;5.196;2023-02-19T00:49:16;17.23;;;5.55;;
20734;SDS011;10528;52.124;5.196;2023-02-19T00:51:48;13.70;;;4.57;;
20734;SDS011;10528;52.124;5.196;2023-02-19T00:54:17;15.00;;;4.50;;
20734;SDS011;10528;52.124;5.196;2023-02-19T00:56:45;16.42;;;5.00;;
20734;SDS011;10528;52.124;5.196;2023-02-19T00:59:12;19.75;;;4.32;;
20734;SDS011;10528;52.124;5.196;2023-02-19T01:01:40;14.13;;;4.82;;
20734;SDS011;10528;52.124;5.196;2023-02-19T01:04:10;11.00;;;4.50;;
20734;SDS011;10528;52.124;5.196;2023-02-19T01:06:37;15.70;;;4.72;;
20734;SDS011;10528;52.124;5.196;2023-02-19T01:09:04;14.23;;;5.05;;
20734;SDS011;10528;52.124;5.196;2023-02-19T01:11:32;12.93;;;4.38;;
20734;SDS011;10528;52.124;5.196;2023-02-19T01:14:00;17.63;;;5.53;;
20734;SDS011;10528;52.124;5.196;2023-02-19T01:16:28;17.00;;;5.22;;
20734;SDS011;10528;52.124;5.196;2023-02-19T01:18:56;13.10;;;5.35;;
20734;SDS011;10528;52.124;5.196;2023-02-19T01:21:24;14.07;;;4.70;;
20734;SDS011;10528;52.124;5.196;2023-02-19T01:23:53;15.32;;;5.35;;
20734;SDS011;10528;52.124;5.196;2023-02-19T01:26:24;12.32;;;5.10;;
20734;SDS011;10528;52.124;5.196;2023-02-19T01:28:57;12.55;;;4.80;;
20734;SDS011;10528;52.124;5.196;2023-02-19T01:31:26;16.80;;;5.43;;
20734;SDS011;10528;52.124;5.196;2023-02-19T01:33:55;15.95;;;5.53;;
20734;SDS011;10528;52.124;5.196;2023-02-19T01:36:25;11.60;;;4.28;;
20734;SDS011;10528;52.124;5.196;2023-02-19T01:38:54;14.50;;;4.22;;
20734;SDS011;10528;52.124;5.196;2023-02-19T01:41:22;13.57;;;4.57;;
20734;SDS011;10528;52.124;5.196;2023-02-19T01:46:37;17.63;;;4.45;;
20734;SDS011;10528;52.124;5.196;2023-02-19T01:51:55;12.10;;;3.33;;
20734;SDS011;10528;52.124;5.196;2023-02-19T01:54:30;12.65;;;3.50;;
20734;SDS011;10528;52.124;5.196;2023-02-19T01:57:03;11.98;;;3.55;;
20734;SDS011;10528;52.124;5.196;2023-02-19T01:59:36;13.10;;;4.07;;
20734;SDS011;10528;52.124;5.196;2023-02-19T02:02:03;11.00;;;3.30;;
20734;SDS011;10528;52.124;5.196;2023-02-19T02:04:31;13.18;;;3.10;;
20734;SDS011;10528;52.124;5.196;2023-02-19T02:07:01;11.10;;;3.28;;
20734;SDS011;10528;52.124;5.196;2023-02-19T02:09:51;13.98;;;4.05;;
20734;SDS011;10528;52.124;5.196;2023-02-19T02:12:37;11.45;;;3.80;;
20734;SDS011;10528;52.124;5.196;2023-02-19T02:15:04;9.70;;;2.92;;
20734;SDS011;10528;52.124;5.196;2023-02-19T02:26:54;12.48;;;2.70;;
20734;SDS011;10528;52.124;5.196;2023-02-19T02:30:11;13.80;;;2.72;;
20734;SDS011;10528;52.124;5.196;2023-02-19T02:36:05;9.40;;;2.60;;
20734;SDS011;10528;52.124;5.196;2023-02-19T02:38:41;13.93;;;3.40;;
20734;SDS011;10528;52.124;5.196;2023-02-19T02:41:12;13.10;;;3.40;;
20734;SDS011;10528;52.124;5.196;2023-02-19T02:43:40;15.88;;;3.63;;
20734;SDS011;10528;52.124;5.196;2023-02-19T02:46:15;9.32;;;2.80;;
20734;SDS011;10528;52.124;5.196;2023-02-19T02:49:02;12.57;;;2.63;;
20734;SDS011;10528;52.124;5.196;2023-02-19T02:51:37;9.93;;;2.78;;
20734;SDS011;10528;52.124;5.196;2023-02-19T02:54:28;11.05;;;3.08;;
20734;SDS011;10528;52.124;5.196;2023-02-19T02:57:20;10.52;;;3.20;;
20734;SDS011;10528;52.124;5.196;2023-02-19T02:59:51;10.02;;;3.17;;
20734;SDS011;10528;52.124;5.196;2023-02-19T03:02:22;12.85;;;3.65;;
20734;SDS011;10528;52.124;5.196;2023-02-19T03:05:12;9.05;;;3.53;;
20734;SDS011;10528;52.124;5.196;2023-02-19T03:08:13;10.50;;;3.25;;
20734;SDS011;10528;52.124;5.196;2023-02-19T03:13:29;12.25;;;3.70;;
20734;SDS011;10528;52.124;5.196;2023-02-19T03:16:23;11.43;;;3.80;;
20734;SDS011;10528;52.124;5.196;2023-02-19T03:19:14;12.02;;;3.53;;
20734;SDS011;10528;52.124;5.196;2023-02-19T03:27:46;15.82;;;3.25;;
20734;SDS011;10528;52.124;5.196;2023-02-19T03:30:18;13.07;;;3.92;;
20734;SDS011;10528;52.124;5.196;2023-02-19T03:32:51;12.27;;;3.40;;
20734;SDS011;10528;52.124;5.196;2023-02-19T03:35:26;7.97;;;3.10;;
20734;SDS011;10528;52.124;5.196;2023-02-19T03:40:54;12.88;;;3.78;;
20734;SDS011;10528;52.124;5.196;2023-02-19T03:43:56;9.70;;;3.00;;
20734;SDS011;10528;52.124;5.196;2023-02-19T03:46:59;11.02;;;3.08;;
20734;SDS011;10528;52.124;5.196;2023-02-19T03:49:43;15.35;;;4.25;;
20734;SDS011;10528;52.124;5.196;2023-02-19T03:52:40;12.93;;;3.90;;
20734;SDS011;10528;52.124;5.196;2023-02-19T03:56:03;10.30;;;3.05;;
20734;SDS011;10528;52.124;5.196;2023-02-19T03:58:33;9.95;;;3.05;;
20734;SDS011;10528;52.124;5.196;2023-02-19T04:01:46;11.05;;;3.30;;
20734;SDS011;10528;52.124;5.196;2023-02-19T04:05:23;9.50;;;3.50;;
20734;SDS011;10528;52.124;5.196;2023-02-19T04:07:40;16.40;;;3.88;;
20734;SDS011;10528;52.124;5.196;2023-02-19T04:10:14;9.90;;;3.60;;
20734;SDS011;10528;52.124;5.196;2023-02-19T04:12:48;14.65;;;3.53;;
20734;SDS011;10528;52.124;5.196;2023-02-19T04:15:34;14.90;;;3.30;;
20734;SDS011;10528;52.124;5.196;2023-02-19T04:18:06;12.52;;;3.20;;
20734;SDS011;10528;52.124;5.196;2023-02-19T04:20:43;9.57;;;3.00;;
20734;SDS011;10528;52.124;5.196;2023-02-19T04:23:13;15.23;;;3.88;;
20734;SDS011;10528;52.124;5.196;2023-02-19T04:25:47;10.55;;;3.78;;
20734;SDS011;10528;52.124;5.196;2023-02-19T04:28:20;9.77;;;3.42;;
20734;SDS011;10528;52.124;5.196;2023-02-19T04:30:47;14.30;;;3.45;;
20734;SDS011;10528;52.124;5.196;2023-02-19T04:33:14;9.18;;;2.90;;
20734;SDS011;10528;52.124;5.196;2023-02-19T04:35:41;13.25;;;3.50;;
20734;SDS011;10528;52.124;5.196;2023-02-19T04:38:08;8.93;;;2.75;;
20734;SDS011;10528;52.124;5.196;2023-02-19T04:40:35;13.10;;;3.20;;
20734;SDS011;10528;52.124;5.196;2023-02-19T04:43:02;14.52;;;3.50;;
20734;SDS011;10528;52.124;5.196;2023-02-19T04:45:29;13.85;;;4.15;;
20734;SDS011;10528;52.124;5.196;2023-02-19T04:47:56;11.80;;;3.50;;
20734;SDS011;10528;52.124;5.196;2023-02-19T04:50:24;11.27;;;3.30;;
20734;SDS011;10528;52.124;5.196;2023-02-19T04:52:51;8.05;;;2.85;;
20734;SDS011;10528;52.124;5.196;2023-02-19T04:55:18;13.02;;;3.28;;
20734;SDS011;10528;52.124;5.196;2023-02-19T04:57:44;11.20;;;3.50;;
20734;SDS011;10528;52.124;5.196;2023-02-19T05:00:11;16.17;;;4.13;;
20734;SDS011;10528;52.124;5.196;2023-02-19T05:02:39;12.50;;;3.53;;
20734;SDS011;10528;52.124;5.196;2023-02-19T05:05:06;12.13;;;3.15;;
20734;SDS011;10528;52.124;5.196;2023-02-19T05:07:33;14.75;;;3.92;;
20734;SDS011;10528;52.124;5.196;2023-02-19T05:10:00;11.43;;;3.08;;
20734;SDS011;10528;52.124;5.196;2023-02-19T05:12:28;12.85;;;3.30;;
20734;SDS011;10528;52.124;5.196;2023-02-19T05:14:56;9.35;;;2.80;;
20734;SDS011;10528;52.124;5.196;2023-02-19T05:17:23;10.48;;;3.42;;
20734;SDS011;10528;52.124;5.196;2023-02-19T05:19:50;11.07;;;2.97;;
20734;SDS011;10528;52.124;5.196;2023-02-19T05:22:16;10.05;;;2.72;;
20734;SDS011;10528;52.124;5.196;2023-02-19T05:24:43;14.43;;;3.05;;
20734;SDS011;10528;52.124;5.196;2023-02-19T05:27:10;9.60;;;2.92;;
20734;SDS011;10528;52.124;5.196;2023-02-19T05:29:37;9.90;;;2.38;;
20734;SDS011;10528;52.124;5.196;2023-02-19T05:32:04;21.85;;;3.25;;
20734;SDS011;10528;52.124;5.196;2023-02-19T05:34:31;14.65;;;3.22;;
20734;SDS011;10528;52.124;5.196;2023-02-19T05:36:58;14.10;;;3.05;;
20734;SDS011;10528;52.124;5.196;2023-02-19T05:39:24;7.97;;;2.53;;
20734;SDS011;10528;52.124;5.196;2023-02-19T05:41:51;12.25;;;3.47;;
20734;SDS011;10528;52.124;5.196;2023-02-19T05:44:18;12.65;;;3.35;;
20734;SDS011;10528;52.124;5.196;2023-02-19T05:46:45;8.23;;;3.13;;
20734;SDS011;10528;52.124;5.196;2023-02-19T05:49:12;11.38;;;3.22;;
20734;SDS011;10528;52.124;5.196;2023-02-19T05:51:39;13.32;;;3.45;;
20734;SDS011;10528;52.124;5.196;2023-02-19T05:54:06;14.40;;;3.40;;
20734;SDS011;10528;52.124;5.196;2023-02-19T05:56:39;10.70;;;3.13;;
20734;SDS011;10528;52.124;5.196;2023-02-19T05:59:13;16.20;;;3.85;;
20734;SDS011;10528;52.124;5.196;2023-02-19T06:01:47;11.57;;;3.15;;
20734;SDS011;10528;52.124;5.196;2023-02-19T06:04:16;13.27;;;3.50;;
20734;SDS011;10528;52.124;5.196;2023-02-19T06:06:46;12.07;;;3.70;;
20734;SDS011;10528;52.124;5.196;2023-02-19T06:09:13;14.23;;;3.60;;
20734;SDS011;10528;52.124;5.196;2023-02-19T06:11:40;10.65;;;3.35;;
20734;SDS011;10528;52.124;5.196;2023-02-19T06:14:09;9.45;;;3.03;;
20734;SDS011;10528;52.124;5.196;2023-02-19T06:16:39;9.60;;;3.35;;
20734;SDS011;10528;52.124;5.196;2023-02-19T06:19:06;8.85;;;3.30;;
20734;SDS011;10528;52.124;5.196;2023-02-19T06:21:34;12.80;;;3.38;;
20734;SDS011;10528;52.124;5.196;2023-02-19T06:24:05;12.40;;;3.70;;
20734;SDS011;10528;52.124;5.196;2023-02-19T06:26:34;12.90;;;3.58;;
20734;SDS011;10528;52.124;5.196;2023-02-19T06:29:02;11.50;;;3.85;;
20734;SDS011;10528;52.124;5.196;2023-02-19T06:31:29;7.85;;;3.50;;
20734;SDS011;10528;52.124;5.196;2023-02-19T06:33:56;8.43;;;4.00;;
20734;SDS011;10528;52.124;5.196;2023-02-19T06:36:23;10.45;;;3.95;;
20734;SDS011;10528;52.124;5.196;2023-02-19T06:38:50;9.85;;;3.63;;
20734;SDS011;10528;52.124;5.196;2023-02-19T06:41:17;11.77;;;3.90;;
20734;SDS011;10528;52.124;5.196;2023-02-19T06:43:45;9.63;;;3.67;;
20734;SDS011;10528;52.124;5.196;2023-02-19T06:46:12;12.88;;;4.10;;
20734;SDS011;10528;52.124;5.196;2023-02-19T06:48:40;11.23;;;3.78;;
20734;SDS011;10528;52.124;5.196;2023-02-19T06:51:13;9.63;;;3.63;;
20734;SDS011;10528;52.124;5.196;2023-02-19T06:53:47;10.18;;;3.60;;
20734;SDS011;10528;52.124;5.196;2023-02-19T06:56:22;11.10;;;4.22;;
20734;SDS011;10528;52.124;5.196;2023-02-19T06:58:57;11.27;;;3.85;;
20734;SDS011;10528;52.124;5.196;2023-02-19T07:01:29;10.32;;;3.75;;
20734;SDS011;10528;52.124;5.196;2023-02-19T07:03:59;9.70;;;3.97;;
20734;SDS011;10528;52.124;5.196;2023-02-19T07:06:26;12.05;;;4.32;;
20734;SDS011;10528;52.124;5.196;2023-02-19T07:08:55;14.50;;;3.92;;
20734;SDS011;10528;52.124;5.196;2023-02-19T07:11:23;14.18;;;4.80;;
20734;SDS011;10528;52.124;5.196;2023-02-19T07:13:54;12.70;;;4.45;;
20734;SDS011;10528;52.124;5.196;2023-02-19T07:16:26;11.52;;;3.78;;
20734;SDS011;10528;52.124;5.196;2023-02-19T07:18:57;15.38;;;4.32;;
20734;SDS011;10528;52.124;5.196;2023-02-19T07:21:25;15.57;;;4.43;;
20734;SDS011;10528;52.124;5.196;2023-02-19T07:23:53;10.98;;;4.75;;
20734;SDS011;10528;52.124;5.196;2023-02-19T07:26:21;18.90;;;5.32;;
20734;SDS011;10528;52.124;5.196;2023-02-19T07:28:49;13.65;;;4.90;;
20734;SDS011;10528;52.124;5.196;2023-02-19T07:31:18;13.30;;;4.90;;
20734;SDS011;10528;52.124;5.196;2023-02-19T07:33:49;13.15;;;5.00;;
20734;SDS011;10528;52.124;5.196;2023-02-19T07:36:17;12.90;;;5.20;;
20734;SDS011;10528;52.124;5.196;2023-02-19T07:38:46;12.10;;;4.40;;
20734;SDS011;10528;52.124;5.196;2023-02-19T07:41:12;12.95;;;4.55;;
20734;SDS011;10528;52.124;5.196;2023-02-19T07:43:39;11.35;;;4.57;;
20734;SDS011;10528;52.124;5.196;2023-02-19T07:46:07;12.57;;;5.45;;
20734;SDS011;10528;52.124;5.196;2023-02-19T07:48:40;12.02;;;5.13;;
20734;SDS011;10528;52.124;5.196;2023-02-19T07:51:09;13.75;;;4.60;;
20734;SDS011;10528;52.124;5.196;2023-02-19T07:53:41;10.50;;;4.60;;
20734;SDS011;10528;52.124;5.196;2023-02-19T07:56:09;14.32;;;5.35;;
20734;SDS011;10528;52.124;5.196;2023-02-19T07:58:38;13.85;;;5.70;;
20734;SDS011;10528;52.124;5.196;2023-02-19T08:01:09;13.38;;;5.43;;
20734;SDS011;10528;52.124;5.196;2023-02-19T08:03:42;12.93;;;5.10;;
20734;SDS011;10528;52.124;5.196;2023-02-19T08:06:10;9.20;;;4.35;;
20734;SDS011;10528;52.124;5.196;2023-02-19T08:08:37;12.23;;;4.85;;
20734;SDS011;10528;52.124;5.196;2023-02-19T08:11:05;13.32;;;4.93;;
20734;SDS011;10528;52.124;5.196;2023-02-19T08:13:51;12.07;;;4.90;;
20734;SDS011;10528;52.124;5.196;2023-02-19T08:16:19;10.77;;;4.70;;
20734;SDS011;10528;52.124;5.196;2023-02-19T08:19:06;11.60;;;4.60;;
20734;SDS011;10528;52.124;5.196;2023-02-19T08:21:33;11.27;;;4.50;;
20734;SDS011;10528;52.124;5.196;2023-02-19T08:23:59;9.93;;;4.40;;
20734;SDS011;10528;52.124;5.196;2023-02-19T08:26:26;12.68;;;4.70;;
20734;SDS011;10528;52.124;5.196;2023-02-19T08:28:53;11.90;;;4.72;;
20734;SDS011;10528;52.124;5.196;2023-02-19T08:31:20;12.15;;;4.60;;
20734;SDS011;10528;52.124;5.196;2023-02-19T08:33:47;11.35;;;5.40;;
20734;SDS011;10528;52.124;5.196;2023-02-19T08:36:14;8.77;;;4.72;;
20734;SDS011;10528;52.124;5.196;2023-02-19T08:38:41;14.38;;;5.57;;
20734;SDS011;10528;52.124;5.196;2023-02-19T08:41:08;11.00;;;5.28;;
20734;SDS011;10528;52.124;5.196;2023-02-19T08:43:39;12.18;;;5.18;;
20734;SDS011;10528;52.124;5.196;2023-02-19T08:46:08;13.05;;;5.55;;
20734;SDS011;10528;52.124;5.196;2023-02-19T08:48:37;15.95;;;6.05;;
20734;SDS011;10528;52.124;5.196;2023-02-19T08:51:06;14.60;;;5.28;;
20734;SDS011;10528;52.124;5.196;2023-02-19T08:53:37;15.50;;;5.43;;
20734;SDS011;10528;52.124;5.196;2023-02-19T08:58:34;13.23;;;5.43;;
20734;SDS011;10528;52.124;5.196;2023-02-19T09:01:06;15.48;;;5.65;;
20734;SDS011;10528;52.124;5.196;2023-02-19T09:03:36;15.93;;;5.05;;
20734;SDS011;10528;52.124;5.196;2023-02-19T09:06:03;18.83;;;5.20;;
20734;SDS011;10528;52.124;5.196;2023-02-19T09:08:30;17.50;;;6.03;;
20734;SDS011;10528;52.124;5.196;2023-02-19T09:11:01;17.67;;;5.13;;
20734;SDS011;10528;52.124;5.196;2023-02-19T09:13:30;16.77;;;4.70;;
20734;SDS011;10528;52.124;5.196;2023-02-19T09:15:57;16.80;;;5.57;;
20734;SDS011;10528;52.124;5.196;2023-02-19T09:18:24;15.70;;;5.15;;
20734;SDS011;10528;52.124;5.196;2023-02-19T09:20:52;14.23;;;4.80;;
20734;SDS011;10528;52.124;5.196;2023-02-19T09:23:18;18.13;;;5.28;;
20734;SDS011;10528;52.124;5.196;2023-02-19T09:25:45;16.10;;;4.53;;
20734;SDS011;10528;52.124;5.196;2023-02-19T09:28:12;12.02;;;3.97;;
20734;SDS011;10528;52.124;5.196;2023-02-19T09:30:39;12.20;;;4.30;;
20734;SDS011;10528;52.124;5.196;2023-02-19T09:33:06;15.80;;;4.32;;
20734;SDS011;10528;52.124;5.196;2023-02-19T09:35:33;9.05;;;4.10;;
20734;SDS011;10528;52.124;5.196;2023-02-19T09:38:04;13.18;;;4.07;;
20734;SDS011;10528;52.124;5.196;2023-02-19T09:40:31;13.75;;;3.63;;
20734;SDS011;10528;52.124;5.196;2023-02-19T09:43:00;13.55;;;4.35;;
20734;SDS011;10528;52.124;5.196;2023-02-19T09:45:32;14.07;;;3.78;;
20734;SDS011;10528;52.124;5.196;2023-02-19T09:48:03;8.88;;;3.83;;
20734;SDS011;10528;52.124;5.196;2023-02-19T09:50:33;13.07;;;4.38;;
20734;SDS011;10528;52.124;5.196;2023-02-19T09:53:28;8.80;;;3.40;;
20734;SDS011;10528;52.124;5.196;2023-02-19T09:56:06;10.40;;;3.50;;
20734;SDS011;10528;52.124;5.196;2023-02-19T09:58:35;9.95;;;3.20;;
20734;SDS011;10528;52.124;5.196;2023-02-19T10:01:13;9.68;;;2.88;;
20734;SDS011;10528;52.124;5.196;2023-02-19T10:03:45;7.38;;;2.53;;
20734;SDS011;10528;52.124;5.196;2023-02-19T10:06:18;9.77;;;3.00;;
20734;SDS011;10528;52.124;5.196;2023-02-19T10:08:49;8.20;;;3.00;;
20734;SDS011;10528;52.124;5.196;2023-02-19T10:11:40;8.25;;;2.97;;
20734;SDS011;10528;52.124;5.196;2023-02-19T10:14:11;8.80;;;2.72;;
20734;SDS011;10528;52.124;5.196;2023-02-19T10:17:03;8.82;;;2.78;;
20734;SDS011;10528;52.124;5.196;2023-02-19T10:19:32;7.20;;;2.88;;
20734;SDS011;10528;52.124;5.196;2023-02-19T10:22:01;11.00;;;3.00;;
20734;SDS011;10528;52.124;5.196;2023-02-19T10:24:29;9.70;;;3.25;;
20734;SDS011;10528;52.124;5.196;2023-02-19T10:26:57;6.85;;;2.85;;
20734;SDS011;10528;52.124;5.196;2023-02-19T10:29:24;8.45;;;2.47;;
20734;SDS011;10528;52.124;5.196;2023-02-19T10:32:11;5.82;;;2.95;;
20734;SDS011;10528;52.124;5.196;2023-02-19T10:34:43;6.05;;;1.85;;
20734;SDS011;10528;52.124;5.196;2023-02-19T10:37:14;5.63;;;1.77;;
20734;SDS011;10528;52.124;5.196;2023-02-19T10:39:47;4.95;;;1.98;;
20734;SDS011;10528;52.124;5.196;2023-02-19T10:42:17;6.93;;;2.10;;
20734;SDS011;10528;52.124;5.196;2023-02-19T10:44:52;4.30;;;1.90;;
20734;SDS011;10528;52.124;5.196;2023-02-19T10:47:24;5.22;;;1.95;;
20734;SDS011;10528;52.124;5.196;2023-02-19T10:49:55;4.53;;;2.10;;
20734;SDS011;10528;52.124;5.196;2023-02-19T10:52:29;7.05;;;2.55;;
20734;SDS011;10528;52.124;5.196;2023-02-19T10:57:56;5.55;;;2.22;;
20734;SDS011;10528;52.124;5.196;2023-02-19T11:00:40;4.63;;;2.42;;
20734;SDS011;10528;52.124;5.196;2023-02-19T11:05:49;5.43;;;1.95;;
20734;SDS011;10528;52.124;5.196;2023-02-19T11:08:26;4.95;;;2.00;;
20734;SDS011;10528;52.124;5.196;2023-02-19T11:10:55;3.38;;;2.03;;
20734;SDS011;10528;52.124;5.196;2023-02-19T11:13:32;2.60;;;1.65;;
20734;SDS011;10528;52.124;5.196;2023-02-19T11:16:03;2.92;;;1.65;;
20734;SDS011;10528;52.124;5.196;2023-02-19T11:18:30;3.50;;;1.73;;
20734;SDS011;10528;52.124;5.196;2023-02-19T11:21:00;4.10;;;1.75;;
20734;SDS011;10528;52.124;5.196;2023-02-19T11:26:02;7.22;;;2.10;;
20734;SDS011;10528;52.124;5.196;2023-02-19T11:28:41;3.17;;;1.80;;
20734;SDS011;10528;52.124;5.196;2023-02-19T11:33:58;3.70;;;1.85;;
20734;SDS011;10528;52.124;5.196;2023-02-19T11:36:41;4.95;;;2.40;;
20734;SDS011;10528;52.124;5.196;2023-02-19T11:42:44;4.82;;;2.38;;
20734;SDS011;10528;52.124;5.196;2023-02-19T11:47:57;4.50;;;1.80;;
20734;SDS011;10528;52.124;5.196;2023-02-19T11:50:44;2.85;;;1.40;;
20734;SDS011;10528;52.124;5.196;2023-02-19T11:53:47;2.38;;;1.35;;
20734;SDS011;10528;52.124;5.196;2023-02-19T11:57:05;3.35;;;1.88;;
20734;SDS011;10528;52.124;5.196;2023-02-19T11:59:45;2.70;;;1.70;;
20734;SDS011;10528;52.124;5.196;2023-02-19T12:08:46;3.50;;;2.25;;
20734;SDS011;10528;52.124;5.196;2023-02-19T12:16:57;3.70;;;2.30;;
20734;SDS011;10528;52.124;5.196;2023-02-19T12:19:35;3.58;;;2.20;;
20734;SDS011;10528;52.124;5.196;2023-02-19T12:30:49;5.35;;;1.77;;
20734;SDS011;10528;52.124;5.196;2023-02-19T12:33:39;3.17;;;1.88;;
20734;SDS011;10528;52.124;5.196;2023-02-19T12:39:46;3.22;;;2.00;;
20734;SDS011;10528;52.124;5.196;2023-02-19T12:42:26;5.60;;;2.47;;
20734;SDS011;10528;52.124;5.196;2023-02-19T12:45:18;3.20;;;2.03;;
20734;SDS011;10528;52.124;5.196;2023-02-19T12:48:06;5.28;;;3.00;;
20734;SDS011;10528;52.124;5.196;2023-02-19T12:50:58;5.00;;;2.22;;
20734;SDS011;10528;52.124;5.196;2023-02-19T12:53:50;3.08;;;1.90;;
20734;SDS011;10528;52.124;5.196;2023-02-19T12:56:34;2.65;;;1.90;;
20734;SDS011;10528;52.124;5.196;2023-02-19T13:04:57;2.75;;;2.00;;
20734;SDS011;10528;52.124;5.196;2023-02-19T13:10:52;2.97;;;2.17;;
20734;SDS011;10528;52.124;5.196;2023-02-19T13:13:27;3.42;;;1.73;;
20734;SDS011;10528;52.124;5.196;2023-02-19T13:16:10;3.45;;;1.88;;
20734;SDS011;10528;52.124;5.196;2023-02-19T13:18:46;4.00;;;1.80;;
20734;SDS011;10528;52.124;5.196;2023-02-19T13:21:16;2.58;;;1.52;;
20734;SDS011;10528;52.124;5.196;2023-02-19T13:24:07;2.50;;;1.73;;
20734;SDS011;10528;52.124;5.196;2023-02-19T13:30:09;3.60;;;1.85;;
20734;SDS011;10528;52.124;5.196;2023-02-19T13:32:49;3.25;;;2.10;;
20734;SDS011;10528;52.124;5.196;2023-02-19T13:35:29;4.30;;;1.75;;
20734;SDS011;10528;52.124;5.196;2023-02-19T13:38:32;3.15;;;1.85;;
20734;SDS011;10528;52.124;5.196;2023-02-19T13:41:20;3.22;;;1.80;;
20734;SDS011;10528;52.124;5.196;2023-02-19T13:43:54;2.95;;;1.83;;
20734;SDS011;10528;52.124;5.196;2023-02-19T13:46:38;2.60;;;1.73;;
20734;SDS011;10528;52.124;5.196;2023-02-19T13:54:30;2.33;;;1.60;;
20734;SDS011;10528;52.124;5.196;2023-02-19T13:57:44;5.78;;;2.13;;
20734;SDS011;10528;52.124;5.196;2023-02-19T13:59:55;3.13;;;1.35;;
20734;SDS011;10528;52.124;5.196;2023-02-19T14:02:25;3.60;;;1.50;;
20734;SDS011;10528;52.124;5.196;2023-02-19T14:04:58;3.15;;;1.45;;
20734;SDS011;10528;52.124;5.196;2023-02-19T14:10:48;2.15;;;1.58;;
20734;SDS011;10528;52.124;5.196;2023-02-19T14:13:53;5.38;;;3.33;;
20734;SDS011;10528;52.124;5.196;2023-02-19T14:18:58;3.10;;;1.83;;
20734;SDS011;10528;52.124;5.196;2023-02-19T14:21:33;3.33;;;1.60;;
20734;SDS011;10528;52.124;5.196;2023-02-19T14:24:10;3.72;;;1.90;;
20734;SDS011;10528;52.124;5.196;2023-02-19T14:26:39;3.75;;;1.98;;
20734;SDS011;10528;52.124;5.196;2023-02-19T14:29:07;3.20;;;1.77;;
20734;SDS011;10528;52.124;5.196;2023-02-19T14:31:42;4.32;;;1.80;;
20734;SDS011;10528;52.124;5.196;2023-02-19T14:34:15;3.83;;;1.83;;
20734;SDS011;10528;52.124;5.196;2023-02-19T14:36:56;3.05;;;1.38;;
20734;SDS011;10528;52.124;5.196;2023-02-19T14:39:30;2.78;;;1.30;;
20734;SDS011;10528;52.124;5.196;2023-02-19T14:42:14;3.83;;;2.03;;
20734;SDS011;10528;52.124;5.196;2023-02-19T14:44:54;2.03;;;1.50;;
20734;SDS011;10528;52.124;5.196;2023-02-19T14:47:25;1.55;;;1.00;;
20734;SDS011;10528;52.124;5.196;2023-02-19T14:50:04;1.10;;;0.85;;
20734;SDS011;10528;52.124;5.196;2023-02-19T14:52:40;1.40;;;0.82;;
20734;SDS011;10528;52.124;5.196;2023-02-19T14:55:20;2.53;;;0.90;;
20734;SDS011;10528;52.124;5.196;2023-02-19T14:57:55;2.50;;;0.90;;
20734;SDS011;10528;52.124;5.196;2023-02-19T15:00:27;1.85;;;0.90;;
20734;SDS011;10528;52.124;5.196;2023-02-19T15:03:04;4.20;;;0.93;;
20734;SDS011;10528;52.124;5.196;2023-02-19T15:05:52;1.23;;;0.77;;
20734;SDS011;10528;52.124;5.196;2023-02-19T15:08:44;1.27;;;1.17;;
20734;SDS011;10528;52.124;5.196;2023-02-19T15:11:25;2.30;;;1.38;;
20734;SDS011;10528;52.124;5.196;2023-02-19T15:13:58;4.00;;;3.03;;
20734;SDS011;10528;52.124;5.196;2023-02-19T15:16:30;4.30;;;2.10;;
20734;SDS011;10528;52.124;5.196;2023-02-19T15:19:00;2.75;;;1.65;;
20734;SDS011;10528;52.124;5.196;2023-02-19T15:21:35;4.82;;;2.38;;
20734;SDS011;10528;52.124;5.196;2023-02-19T15:24:09;7.80;;;3.00;;
20734;SDS011;10528;52.124;5.196;2023-02-19T15:26:40;6.90;;;3.75;;
20734;SDS011;10528;52.124;5.196;2023-02-19T15:29:22;5.57;;;3.25;;
20734;SDS011;10528;52.124;5.196;2023-02-19T15:31:54;3.28;;;2.10;;
20734;SDS011;10528;52.124;5.196;2023-02-19T15:34:27;2.28;;;1.30;;
20734;SDS011;10528;52.124;5.196;2023-02-19T15:37:00;5.18;;;1.35;;
20734;SDS011;10528;52.124;5.196;2023-02-19T15:39:39;1.98;;;1.20;;
20734;SDS011;10528;52.124;5.196;2023-02-19T15:42:16;2.38;;;1.25;;
20734;SDS011;10528;52.124;5.196;2023-02-19T15:44:52;2.65;;;1.55;;
20734;SDS011;10528;52.124;5.196;2023-02-19T15:47:47;2.35;;;1.45;;
20734;SDS011;10528;52.124;5.196;2023-02-19T15:50:22;2.00;;;1.20;;
20734;SDS011;10528;52.124;5.196;2023-02-19T15:53:28;2.92;;;1.75;;
20734;SDS011;10528;52.124;5.196;2023-02-19T15:55:59;4.65;;;1.27;;
20734;SDS011;10528;52.124;5.196;2023-02-19T16:01:38;4.55;;;1.50;;
20734;SDS011;10528;52.124;5.196;2023-02-19T16:04:13;3.35;;;1.88;;
20734;SDS011;10528;52.124;5.196;2023-02-19T16:09:28;6.68;;;3.50;;
20734;SDS011;10528;52.124;5.196;2023-02-19T16:12:15;5.60;;;3.22;;
20734;SDS011;10528;52.124;5.196;2023-02-19T16:14:49;8.07;;;4.15;;
20734;SDS011;10528;52.124;5.196;2023-02-19T16:17:17;5.50;;;3.38;;
20734;SDS011;10528;52.124;5.196;2023-02-19T16:19:55;5.93;;;3.80;;
20734;SDS011;10528;52.124;5.196;2023-02-19T16:22:29;5.45;;;3.33;;
20734;SDS011;10528;52.124;5.196;2023-02-19T16:25:05;7.38;;;4.10;;
20734;SDS011;10528;52.124;5.196;2023-02-19T16:27:46;4.72;;;3.78;;
20734;SDS011;10528;52.124;5.196;2023-02-19T16:35:45;5.15;;;3.20;;
20734;SDS011;10528;52.124;5.196;2023-02-19T16:38:15;5.30;;;2.70;;
20734;SDS011;10528;52.124;5.196;2023-02-19T16:41:02;4.68;;;2.83;;
20734;SDS011;10528;52.124;5.196;2023-02-19T16:43:40;3.08;;;2.15;;
20734;SDS011;10528;52.124;5.196;2023-02-19T16:46:09;3.78;;;2.50;;
20734;SDS011;10528;52.124;5.196;2023-02-19T16:48:38;4.50;;;2.75;;
20734;SDS011;10528;52.124;5.196;2023-02-19T16:51:05;3.70;;;2.30;;
20734;SDS011;10528;52.124;5.196;2023-02-19T16:53:34;6.68;;;3.72;;
20734;SDS011;10528;52.124;5.196;2023-02-19T16:56:01;5.85;;;3.15;;
20734;SDS011;10528;52.124;5.196;2023-02-19T16:58:27;6.88;;;1.95;;
20734;SDS011;10528;52.124;5.196;2023-02-19T17:00:54;2.25;;;1.40;;
20734;SDS011;10528;52.124;5.196;2023-02-19T17:03:22;3.15;;;1.60;;
20734;SDS011;10528;52.124;5.196;2023-02-19T17:05:50;3.95;;;1.20;;
20734;SDS011;10528;52.124;5.196;2023-02-19T17:08:34;1.70;;;1.25;;